Time;durP1;ratioP1;P1;durP2;ratioP2;P2;SDS_P1;SDS_P2;PMS_P1;PMS_P2;Temp;Humidity;BMP_temperature;BMP_pressure;BME280_temperature;BME280_humidity;BME280_pressure;Samples;Min_cycle;Max_cycle;Signal;HPM_P1;HPM_P2
2022/09/14 00:01:54;;;;;;;11.80;7.80;;;;;;;10.98;95.35;100620.45;108274;1241;72215;-71
2022/09/14 00:04:23;;;;;;;12.40;7.60;;;;;;;10.96;95.06;100624.98;108268;1241;59541;-74
2022/09/14 00:06:52;;;;;;;12.30;7.90;;;;;;;10.93;94.16;100617.52;108160;1242;59498;-72
2022/09/14 00:09:23;;;;;;;13.50;7.90;;;;;;;10.84;95.94;100616.77;108238;1241;74831;-70
2022/09/14 00:11:52;;;;;;;12.80;8.70;;;;;;;10.81;96.80;100614.23;108200;1241;71514;-71
2022/09/14 00:14:21;;;;;;;13.10;7.80;;;;;;;10.82;97.14;100611.02;107964;1242;67889;-70
2022/09/14 00:16:51;;;;;;;10.50;7.80;;;;;;;10.83;96.88;100611.09;108243;1241;71238;-69
2022/09/14 00:19:26;;;;;;;11.60;7.70;;;;;;;10.85;96.72;100613.74;108141;1241;63925;-72
2022/09/14 00:21:57;;;;;;;12.90;8.00;;;;;;;10.86;96.69;100611.23;107998;1241;61307;-71
2022/09/14 00:24:33;;;;;;;11.30;8.00;;;;;;;10.85;95.55;100609.93;107996;1241;75946;-70
2022/09/14 00:27:03;;;;;;;12.40;8.40;;;;;;;10.84;94.26;100608.05;108109;1241;70260;-71
2022/09/14 00:29:32;;;;;;;12.30;7.80;;;;;;;10.81;95.19;100601.71;108114;1241;69714;-71
2022/09/14 00:32:02;;;;;;;11.30;7.40;;;;;;;10.79;96.89;100601.50;108196;1241;73721;-71
2022/09/14 00:34:31;;;;;;;14.70;8.40;;;;;;;10.77;97.39;100602.02;108123;1241;63290;-71
2022/09/14 00:37:00;;;;;;;13.20;7.90;;;;;;;10.79;97.20;100602.50;107951;1241;61070;-70
2022/09/14 00:39:28;;;;;;;13.60;8.60;;;;;;;10.82;97.22;100611.55;108115;1241;74979;-69
2022/09/14 00:41:57;;;;;;;13.50;8.10;;;;;;;10.84;96.38;100613.63;108082;1241;70470;-69
2022/09/14 00:44:26;;;;;;;14.80;8.50;;;;;;;10.85;95.83;100611.80;108140;1241;68709;-71
2022/09/14 00:46:59;;;;;;;14.80;8.70;;;;;;;10.86;94.95;100608.28;108135;1241;72326;-69
2022/09/14 00:49:38;;;;;;;12.00;7.80;;;;;;;10.87;96.12;100609.92;107942;1241;61382;-69
2022/09/14 00:52:14;;;;;;;14.00;8.00;;;;;;;10.87;96.57;100607.61;108084;1241;62228;-69
2022/09/14 00:54:48;;;;;;;15.50;8.10;;;;;;;10.88;95.90;100607.73;106528;1241;2101855;-72
2022/09/14 00:57:18;;;;;;;11.80;8.10;;;;;;;10.87;96.62;100598.92;108181;1244;70316;-69
2022/09/14 00:59:51;;;;;;;11.50;8.10;;;;;;;10.86;96.80;100598.52;107901;1242;68694;-70
2022/09/14 01:02:23;;;;;;;13.90;7.60;;;;;;;10.86;96.87;100591.54;107996;1240;70439;-71
2022/09/14 01:04:52;;;;;;;11.80;7.80;;;;;;;10.84;97.05;100596.77;107707;1241;62223;-71
2022/09/14 01:07:49;;;;;;;13.50;7.80;;;;;;;10.84;96.94;100601.59;108943;1244;59450;-71
2022/09/14 01:10:21;;;;;;;11.00;7.80;;;;;;;10.86;95.35;100598.83;108013;1241;72743;-71
2022/09/14 01:13:34;;;;;;;13.30;8.50;;;;;;;10.83;96.66;100589.15;107749;1244;69611;-71
2022/09/14 01:16:18;;;;;;;12.40;8.10;;;;;;;10.83;96.67;100589.17;108143;1241;68766;-70
2022/09/14 01:19:03;;;;;;;12.10;8.30;;;;;;;10.82;96.54;100587.14;107945;1241;71837;-69
2022/09/14 01:21:40;;;;;;;12.10;8.00;;;;;;;10.81;96.63;100584.63;108124;1241;61552;-68
2022/09/14 01:24:33;;;;;;;12.20;7.60;;;;;;;10.80;96.28;100588.13;108152;1241;61114;-71
2022/09/14 01:27:21;;;;;;;12.90;8.40;;;;;;;10.80;96.76;100585.73;108152;1240;74062;-71
2022/09/14 01:30:21;;;;;;;13.10;7.90;;;;;;;10.79;97.10;100579.67;108166;1241;72097;-70
2022/09/14 01:33:01;;;;;;;15.80;8.60;;;;;;;10.78;97.43;100575.58;108223;1241;68382;-71
2022/09/14 01:35:55;;;;;;;12.10;8.00;;;;;;;10.80;97.08;100570.41;107865;1241;74760;-71
2022/09/14 01:38:37;;;;;;;12.90;8.10;;;;;;;10.80;97.09;100569.52;108194;1241;61262;-69
2022/09/14 01:41:13;;;;;;;11.80;8.10;;;;;;;10.81;96.78;100565.27;107934;1241;61079;-70
2022/09/14 01:43:52;;;;;;;11.00;7.80;;;;;;;10.82;96.57;100566.24;108168;1241;73173;-69
2022/09/14 01:46:43;;;;;;;13.80;9.00;;;;;;;10.79;96.88;100565.89;107878;1241;71992;-69
2022/09/14 01:49:18;;;;;;;16.10;8.80;;;;;;;10.80;96.72;100568.65;108183;1241;68047;-71
2022/09/14 01:51:55;;;;;;;11.40;7.70;;;;;;;10.80;96.78;100565.52;108153;1241;71136;-69
2022/09/14 01:54:47;;;;;;;16.60;9.60;;;;;;;10.81;96.64;100564.94;108136;1241;62283;-69
2022/09/14 01:57:42;;;;;;;11.70;8.20;;;;;;;10.81;96.34;100570.80;108144;1241;61107;-68
2022/09/14 02:00:18;;;;;;;15.00;8.60;;;;;;;10.81;96.48;100562.80;108148;1241;75653;-68
2022/09/14 02:03:08;;;;;;;12.80;8.40;;;;;;;10.79;96.48;100555.30;107934;1243;70112;-67
2022/09/14 02:06:43;;;;;;;15.60;8.70;;;;;;;10.76;97.06;100543.84;108173;1241;68684;-71
2022/09/14 02:09:16;;;;;;;;;;;;;;;10.76;97.23;100545.08;107287;1250;75380;-66
2022/09/14 02:11:46;;;;;;;11.90;8.40;;;;;;;10.71;97.24;100543.23;107935;1244;61308;-74
2022/09/14 02:14:15;;;;;;;14.00;7.90;;;;;;;10.68;97.36;100547.11;108162;1241;61473;-67
2022/09/14 02:16:45;;;;;;;11.30;7.90;;;;;;;10.65;96.92;100548.17;108196;1240;74081;-67
2022/09/14 02:19:14;;;;;;;13.20;7.80;;;;;;;10.60;95.88;100548.88;108194;1241;73381;-69
2022/09/14 02:21:45;;;;;;;12.00;7.80;;;;;;;10.58;95.64;100550.99;108115;1241;70781;-73
2022/09/14 02:24:15;;;;;;;11.80;7.80;;;;;;;10.54;96.11;100551.43;107767;1244;72871;-68
2022/09/14 02:26:46;;;;;;;12.30;7.90;;;;;;;10.50;96.65;100547.39;108060;1241;61266;-69
2022/09/14 02:29:14;;;;;;;11.70;7.90;;;;;;;10.49;97.44;100549.77;107896;1241;61263;-69
2022/09/14 02:32:33;;;;;;;12.90;7.80;;;;;;;10.47;97.87;100546.75;108137;1241;74395;-67
2022/09/14 02:35:21;;;;;;;13.30;7.80;;;;;;;10.44;97.75;100550.64;108151;1241;72078;-66
2022/09/14 02:38:19;;;;;;;10.80;7.50;;;;;;;10.42;97.43;100547.66;107956;1244;68095;-65
2022/09/14 02:41:13;;;;;;;13.20;8.00;;;;;;;10.37;97.77;100542.64;108187;1241;72127;-68
2022/09/14 02:44:23;;;;;;;13.30;8.40;;;;;;;10.35;98.04;100543.67;108182;1241;62881;-67
2022/09/14 02:47:35;;;;;;;14.40;8.00;;;;;;;10.32;97.69;100543.49;108283;1241;59480;-68
2022/09/14 02:50:33;;;;;;;11.30;7.70;;;;;;;10.32;97.00;100552.75;108223;1241;71008;-69
2022/09/14 02:53:34;;;;;;;13.90;7.90;;;;;;;10.31;97.05;100546.20;108216;1241;72211;-67
2022/09/14 02:56:07;;;;;;;12.40;7.80;;;;;;;10.30;97.94;100540.72;108160;1241;70280;-67
2022/09/14 02:58:40;;;;;;;12.30;7.50;;;;;;;10.31;97.82;100551.73;107943;1241;74459;-67
2022/09/14 03:01:14;;;;;;;14.20;8.10;;;;;;;10.30;97.73;100550.92;107775;1241;62839;-69
2022/09/14 03:03:43;;;;;;;12.20;7.90;;;;;;;10.30;97.80;100554.41;108067;1244;59964;-68
2022/09/14 03:06:12;;;;;;;13.60;7.60;;;;;;;10.30;97.99;100544.17;108201;1241;74852;-69
2022/09/14 03:08:42;;;;;;;14.60;8.40;;;;;;;10.32;98.12;100547.30;107867;1243;71132;-69
2022/09/14 03:11:11;;;;;;;14.60;8.30;;;;;;;10.34;97.67;100550.80;108146;1241;71135;-70
2022/09/14 03:13:40;;;;;;;12.30;7.80;;;;;;;10.36;96.84;100549.64;108012;1241;72996;-69
2022/09/14 03:16:14;;;;;;;11.60;7.40;;;;;;;10.37;97.55;100547.65;108065;1241;62004;-69
2022/09/14 03:18:44;;;;;;;15.40;8.10;;;;;;;10.39;97.19;100547.69;108114;1241;61653;-66
2022/09/14 03:21:16;;;;;;;23.40;14.00;;;;;;;10.40;97.28;100545.01;108078;1241;74321;-68
2022/09/14 03:23:53;;;;;;;14.80;9.10;;;;;;;10.44;97.80;100547.88;108080;1241;72598;-66
2022/09/14 03:26:24;;;;;;;36.30;18.50;;;;;;;10.46;98.09;100544.02;108071;1241;70232;-72
2022/09/14 03:28:57;;;;;;;15.30;9.70;;;;;;;10.49;98.05;100542.91;108082;1241;72062;-70
2022/09/14 03:31:26;;;;;;;15.50;9.80;;;;;;;10.52;97.95;100545.52;107845;1243;60872;-68
2022/09/14 03:33:57;;;;;;;31.50;14.70;;;;;;;10.55;97.80;100551.54;108129;1241;60679;-70
2022/09/14 03:36:29;;;;;;;15.50;8.50;;;;;;;10.57;97.71;100556.24;107788;1241;71740;-67
2022/09/14 03:39:00;;;;;;;16.10;8.40;;;;;;;10.61;97.65;100556.13;109238;1241;71358;-68
2022/09/14 03:41:29;;;;;;;15.90;8.40;;;;;;;10.64;97.96;100552.95;108064;1241;68316;-71
2022/09/14 03:43:58;;;;;;;14.90;7.90;;;;;;;10.67;98.12;100558.66;108062;1241;71902;-71
2022/09/14 03:46:27;;;;;;;12.00;7.80;;;;;;;10.71;97.86;100554.53;107788;1241;61093;-69
2022/09/14 03:48:56;;;;;;;16.40;8.10;;;;;;;10.74;97.91;100563.50;108032;1241;59461;-66
2022/09/14 03:51:25;;;;;;;12.60;8.40;;;;;;;10.78;97.67;100560.06;108135;1241;74064;-67
2022/09/14 03:53:54;;;;;;;17.50;8.60;;;;;;;10.82;97.66;100558.23;108211;1241;71958;-69
2022/09/14 03:56:23;;;;;;;18.00;9.70;;;;;;;10.86;97.75;100552.70;108184;1240;68283;-68
2022/09/14 03:58:52;;;;;;;11.70;7.60;;;;;;;10.90;97.42;100554.67;108204;1240;72475;-69
2022/09/14 04:01:22;;;;;;;12.90;8.00;;;;;;;10.95;97.25;100554.29;108128;1241;62267;-71
2022/09/14 04:03:51;;;;;;;17.70;8.00;;;;;;;10.99;97.23;100553.94;107847;1243;59818;-76
2022/09/14 04:06:20;;;;;;;14.20;9.00;;;;;;;11.04;96.94;100552.38;108072;1241;74067;-68
2022/09/14 04:08:48;;;;;;;14.00;7.70;;;;;;;11.10;96.66;100551.52;107838;1242;72979;-68
2022/09/14 04:11:22;;;;;;;19.20;9.00;;;;;;;11.15;96.50;100554.31;108129;1241;69364;-69
2022/09/14 04:13:52;;;;;;;19.40;8.80;;;;;;;11.19;96.34;100549.10;107947;1241;73983;-69
2022/09/14 04:16:21;;;;;;;23.60;9.50;;;;;;;11.25;96.27;100549.53;108019;1241;63325;-70
2022/09/14 04:18:50;;;;;;;16.60;9.30;;;;;;;11.31;96.33;100551.17;107997;1242;62894;-72
2022/09/14 04:21:22;;;;;;;15.20;9.40;;;;;;;11.38;96.07;100550.61;107983;1244;75280;-71
2022/09/14 04:23:56;;;;;;;23.10;9.80;;;;;;;11.49;95.86;100548.87;108219;1244;71662;-71
2022/09/14 04:26:44;;;;;;;19.00;10.20;;;;;;;11.57;95.41;100539.52;108135;1242;70536;-70
2022/09/14 04:29:13;;;;;;;21.80;10.80;;;;;;;11.72;94.55;100550.55;108167;1243;71542;-71
2022/09/14 04:31:42;;;;;;;18.50;10.40;;;;;;;11.83;93.61;100553.65;108212;1241;60497;-71
2022/09/14 04:34:15;;;;;;;22.30;10.20;;;;;;;11.93;93.10;100546.23;108265;1241;58912;-70
2022/09/14 04:36:43;;;;;;;15.90;9.50;;;;;;;12.12;90.49;100553.77;107965;1241;73969;-70
2022/09/14 04:39:12;;;;;;;17.70;9.80;;;;;;;12.26;89.18;100552.61;108241;1241;70708;-68
2022/09/14 04:41:42;;;;;;;16.10;9.00;;;;;;;12.41;88.31;100557.65;108193;1241;66913;-77
2022/09/14 04:44:11;;;;;;;12.60;8.40;;;;;;;12.54;88.00;100559.23;107888;1241;73708;-69
2022/09/14 04:46:41;;;;;;;15.00;9.00;;;;;;;12.65;86.77;100560.60;108159;1240;63146;-72
2022/09/14 04:49:17;;;;;;;16.00;9.20;;;;;;;12.75;86.19;100563.77;108322;1241;59529;-71
2022/09/14 04:51:46;;;;;;;15.80;8.80;;;;;;;12.84;85.92;100565.50;108246;1241;72571;-72
2022/09/14 04:54:17;;;;;;;16.60;8.40;;;;;;;12.90;84.26;100569.33;108120;1244;69552;-71
2022/09/14 04:56:45;;;;;;;18.20;9.80;;;;;;;12.96;83.30;100567.55;108258;1241;69706;-72
2022/09/14 04:59:14;;;;;;;16.70;9.50;;;;;;;13.02;83.96;100565.14;108112;1244;72743;-71
2022/09/14 05:01:48;;;;;;;18.00;9.00;;;;;;;13.08;83.73;100567.11;107900;1244;60265;-75
2022/09/14 05:04:18;;;;;;;20.20;8.50;;;;;;;13.11;83.51;100567.92;107999;1243;59623;-73
2022/09/14 05:06:49;;;;;;;16.20;8.50;;;;;;;13.15;83.41;100562.14;108260;1241;72476;-73
2022/09/14 05:09:18;;;;;;;25.40;10.90;;;;;;;13.17;83.96;100554.48;108204;1241;71814;-75
2022/09/14 05:11:49;;;;;;;13.30;8.40;;;;;;;13.23;83.97;100555.19;108009;1241;69898;-74
2022/09/14 05:14:17;;;;;;;15.60;8.50;;;;;;;13.26;83.02;100555.98;107937;1241;73445;-75
2022/09/14 05:16:46;;;;;;;12.90;7.70;;;;;;;13.32;82.62;100558.13;108234;1241;61726;-77
2022/09/14 05:19:17;;;;;;;18.90;8.00;;;;;;;13.39;83.39;100558.35;108293;1241;59705;-72
2022/09/14 05:21:46;;;;;;;13.20;7.90;;;;;;;13.43;82.46;100555.89;107982;1241;73612;-72
2022/09/14 05:24:17;;;;;;;17.60;7.70;;;;;;;13.50;81.39;100554.40;108209;1241;72520;-74
2022/09/14 05:26:46;;;;;;;15.20;8.30;;;;;;;13.60;81.22;100556.96;107883;1243;68782;-74
2022/09/14 05:29:17;;;;;;;17.10;7.70;;;;;;;13.68;79.68;100556.20;108190;1241;71961;-74
2022/09/14 05:31:46;;;;;;;17.10;7.70;;;;;;;13.76;79.08;100551.29;108209;1241;59718;-75
2022/09/14 05:34:16;;;;;;;12.20;7.70;;;;;;;13.84;78.10;100554.07;108044;1241;59954;-74
2022/09/14 05:36:45;;;;;;;9.90;6.60;;;;;;;13.92;77.38;100551.23;107869;1244;72915;-74
2022/09/14 05:39:14;;;;;;;10.70;6.30;;;;;;;13.90;75.10;100556.58;108229;1241;69542;-74
2022/09/14 05:41:49;;;;;;;11.50;6.60;;;;;;;13.95;74.92;100559.07;108050;1243;68768;-73
2022/09/14 05:44:17;;;;;;;10.50;5.60;;;;;;;13.99;74.59;100556.96;108135;1241;73903;-80
2022/09/14 05:46:46;;;;;;;11.70;6.90;;;;;;;14.09;75.53;100557.80;108219;1244;61017;-75
2022/09/14 05:49:15;;;;;;;12.10;6.10;;;;;;;14.19;75.21;100558.48;108067;1244;60863;-75
2022/09/14 05:51:43;;;;;;;8.80;6.60;;;;;;;14.31;74.92;100561.59;108269;1244;74966;-76
2022/09/14 05:54:12;;;;;;;14.10;7.30;;;;;;;14.44;74.52;100562.88;108073;1242;69477;-72
2022/09/14 05:56:41;;;;;;;12.40;7.90;;;;;;;14.57;75.05;100564.34;108071;1241;69736;-72
2022/09/14 05:59:09;;;;;;;17.20;7.50;;;;;;;14.68;76.17;100564.05;108213;1243;71352;-73
2022/09/14 06:01:38;;;;;;;7.20;5.00;;;;;;;14.77;71.27;100565.66;108074;1244;59745;-73
2022/09/14 06:04:10;;;;;;;9.60;4.80;;;;;;;14.90;72.55;100569.40;107986;1244;59004;-71
2022/09/14 06:06:38;;;;;;;11.30;4.50;;;;;;;14.98;71.55;100568.80;108090;1244;73489;-75
2022/09/14 06:09:07;;;;;;;9.70;5.00;;;;;;;15.04;70.06;100568.77;108259;1244;69668;-76
2022/09/14 06:11:36;;;;;;;8.00;4.10;;;;;;;15.17;71.14;100569.13;108181;1244;69232;-73
2022/09/14 06:14:05;;;;;;;11.70;4.90;;;;;;;15.29;69.91;100566.89;108101;1244;73745;-70
2022/09/14 06:16:34;;;;;;;9.50;4.70;;;;;;;15.40;68.96;100567.13;108198;1242;61032;-74
2022/09/14 06:19:03;;;;;;;7.60;4.70;;;;;;;15.49;69.05;100564.73;108181;1242;59499;-76
2022/09/14 06:21:34;;;;;;;8.30;3.90;;;;;;;15.59;67.01;100565.16;107883;1244;74900;-71
2022/09/14 06:24:03;;;;;;;5.30;3.80;;;;;;;15.66;67.71;100569.94;108080;1244;72464;-72
2022/09/14 06:26:32;;;;;;;9.40;4.10;;;;;;;15.75;66.37;100568.67;107862;1243;70267;-68
2022/09/14 06:29:01;;;;;;;6.20;4.00;;;;;;;15.90;65.14;100571.29;107882;1244;74394;-71
2022/09/14 06:31:30;;;;;;;8.50;4.30;;;;;;;16.01;64.11;100573.58;108167;1241;60426;-71
2022/09/14 06:33:58;;;;;;;5.90;4.20;;;;;;;16.10;63.81;100567.77;107989;1244;59945;-70
2022/09/14 06:36:27;;;;;;;7.30;4.40;;;;;;;16.22;63.87;100564.52;107993;1244;73785;-71
2022/09/14 06:38:58;;;;;;;6.80;4.80;;;;;;;16.33;63.96;100567.46;108015;1244;70681;-71
2022/09/14 06:41:29;;;;;;;5.60;3.50;;;;;;;16.43;62.62;100569.20;107929;1244;68708;-72
2022/09/14 06:44:00;;;;;;;7.60;3.60;;;;;;;16.54;61.73;100568.52;108059;1241;73992;-74
2022/09/14 06:46:33;;;;;;;5.40;3.30;;;;;;;16.62;61.57;100568.72;108250;1241;59639;-73
2022/09/14 06:49:10;;;;;;;5.00;3.10;;;;;;;16.76;61.46;100568.27;108268;1241;62193;-70
2022/09/14 06:51:43;;;;;;;6.90;3.50;;;;;;;16.89;60.73;100571.48;107797;1244;71727;-71
2022/09/14 06:54:14;;;;;;;7.40;3.60;;;;;;;17.01;61.60;100569.61;108017;1241;72252;-69
2022/09/14 06:56:45;;;;;;;5.10;3.10;;;;;;;17.17;58.72;100565.17;108272;1241;59739;-73
2022/09/14 06:59:16;;;;;;;5.50;3.70;;;;;;;17.34;59.02;100569.03;108230;1241;73071;-71
2022/09/14 07:01:45;;;;;;;8.60;3.10;;;;;;;17.49;57.88;100571.20;107953;1241;58608;-69
2022/09/14 07:04:14;;;;;;;5.00;2.80;;;;;;;17.60;56.61;100566.30;107954;1244;60808;-71
2022/09/14 07:06:48;;;;;;;7.20;3.10;;;;;;;17.74;55.86;100565.10;108224;1241;64773;-71
2022/09/14 07:09:19;;;;;;;7.20;3.00;;;;;;;17.89;55.90;100559.84;107862;1242;61770;-74
2022/09/14 07:11:48;;;;;;;4.40;2.60;;;;;;;18.06;55.13;100555.25;108237;1241;69917;-69
2022/09/14 07:14:18;;;;;;;3.60;2.80;;;;;;;18.21;53.33;100553.94;108249;1241;74546;-69
2022/09/14 07:16:48;;;;;;;3.70;2.20;;;;;;;18.30;52.15;100551.90;107837;1244;59652;-69
2022/09/14 07:19:17;;;;;;;6.80;2.80;;;;;;;18.36;52.00;100551.52;108326;1241;58996;-70
2022/09/14 07:21:47;;;;;;;5.10;2.70;;;;;;;18.40;52.78;100549.42;108257;1241;74561;-73
2022/09/14 07:24:16;;;;;;;7.40;3.00;;;;;;;18.51;52.36;100545.52;108292;1241;72237;-68
2022/09/14 07:26:44;;;;;;;3.90;2.80;;;;;;;18.59;51.42;100541.30;108184;1243;70111;-69
2022/09/14 07:29:17;;;;;;;3.40;2.40;;;;;;;18.74;50.99;100541.64;108175;1241;65760;-67
2022/09/14 07:31:50;;;;;;;6.70;2.40;;;;;;;18.85;50.20;100543.13;107912;1241;59044;-67
2022/09/14 07:34:19;;;;;;;2.70;2.00;;;;;;;18.92;49.73;100541.79;108169;1241;60541;-67
2022/09/14 07:36:48;;;;;;;4.40;2.20;;;;;;;18.98;48.73;100536.54;108199;1241;75152;-65
2022/09/14 07:39:16;;;;;;;3.70;2.30;;;;;;;19.01;49.70;100532.54;108114;1241;73396;-70
2022/09/14 07:41:45;;;;;;;3.20;2.20;;;;;;;19.14;49.26;100526.58;108174;1241;70899;-70
2022/09/14 07:44:16;;;;;;;3.10;2.10;;;;;;;19.20;47.47;100520.52;107895;1243;63165;-67
2022/09/14 07:46:46;;;;;;;3.50;2.40;;;;;;;19.21;47.86;100516.67;107782;1244;59605;-67
2022/09/14 07:49:16;;;;;;;4.30;2.30;;;;;;;19.26;48.34;100512.23;108188;1241;60562;-69
2022/09/14 07:51:45;;;;;;;5.10;2.60;;;;;;;19.40;48.29;100506.30;108270;1241;74407;-67
2022/09/14 07:54:17;;;;;;;2.80;2.10;;;;;;;19.51;47.36;100496.73;107961;1241;72208;-69
2022/09/14 07:56:48;;;;;;;6.90;2.90;;;;;;;19.60;47.57;100494.86;108139;1244;70337;-71
2022/09/14 07:59:17;;;;;;;3.30;2.50;;;;;;;19.71;47.85;100486.31;108197;1241;66514;-70
2022/09/14 08:02:09;;;;;;;3.50;2.40;;;;;;;19.86;46.85;100482.19;107937;1241;61072;-72
2022/09/14 08:04:38;;;;;;;5.20;2.40;;;;;;;20.00;45.73;100478.80;108222;1241;59665;-67
2022/09/14 08:07:07;;;;;;;8.40;2.80;;;;;;;20.02;45.83;100474.34;108164;1242;63902;-71
2022/09/14 08:09:38;;;;;;;3.90;2.10;;;;;;;20.04;45.81;100470.05;107987;1242;62059;-70
2022/09/14 08:12:07;;;;;;;6.90;2.70;;;;;;;19.99;45.92;100472.55;108129;1241;70584;-69
2022/09/14 08:14:36;;;;;;;5.30;2.80;;;;;;;20.07;46.43;100473.58;107949;1241;63732;-69
2022/09/14 08:17:04;;;;;;;4.40;2.50;;;;;;;20.21;46.46;100465.23;108213;1241;59569;-70
2022/09/14 08:19:34;;;;;;;6.00;3.00;;;;;;;20.30;46.05;100464.54;108234;1241;58916;-66
2022/09/14 08:22:03;;;;;;;3.80;2.50;;;;;;;20.34;45.67;100470.89;108038;1241;74093;-73
2022/09/14 08:24:32;;;;;;;5.20;2.20;;;;;;;20.37;44.40;100478.61;107570;1243;61293;-66
2022/09/14 08:27:01;;;;;;;4.40;2.30;;;;;;;20.29;44.96;100483.46;108001;1241;70249;-68
2022/09/14 08:29:29;;;;;;;4.60;2.30;;;;;;;20.38;45.19;100491.80;108011;1241;74378;-68
2022/09/14 08:31:58;;;;;;;3.70;2.20;;;;;;;20.43;44.86;100498.63;108061;1241;59545;-66
2022/09/14 08:34:27;;;;;;;4.30;2.40;;;;;;;20.36;45.61;100497.16;108008;1241;59506;-69
2022/09/14 08:36:56;;;;;;;4.50;2.90;;;;;;;20.37;45.99;100503.78;107775;1244;72193;-67
2022/09/14 08:39:24;;;;;;;4.80;2.70;;;;;;;20.47;45.68;100510.48;107757;1241;72747;-70
2022/09/14 08:41:59;;;;;;;3.70;1.90;;;;;;;20.50;45.75;100509.04;107968;1244;60279;-66
2022/09/14 08:44:49;;;;;;;4.30;2.30;;;;;;;20.46;45.64;100506.30;107983;1241;72781;-68
2022/09/14 08:47:33;;;;;;;4.00;2.40;;;;;;;20.43;45.29;100509.97;107836;1243;58235;-71
2022/09/14 08:50:13;;;;;;;5.70;2.20;;;;;;;20.52;44.95;100506.62;108131;1242;59413;-66
2022/09/14 08:52:54;;;;;;;5.80;2.50;;;;;;;20.65;45.87;100506.36;107940;1244;63023;-67
2022/09/14 08:55:36;;;;;;;4.90;2.40;;;;;;;20.75;45.87;100503.25;108131;1241;60851;-66
2022/09/14 08:58:20;;;;;;;3.50;1.90;;;;;;;20.88;44.33;100498.99;108121;1241;71326;-74
2022/09/14 09:01:15;;;;;;;4.70;2.00;;;;;;;20.94;42.92;100494.41;108022;1241;74073;-66
2022/09/14 09:04:50;;;;;;;3.50;2.20;;;;;;;20.92;42.83;100487.52;108016;1241;57919;-65
2022/09/14 09:07:50;;;;;;;;;;;;;;;20.98;42.71;100484.38;107283;1249;59580;-69
2022/09/14 09:10:20;;;;;;;4.60;2.20;;;;;;;21.01;42.55;100480.49;107030;1250;64164;-65
2022/09/14 09:12:54;;;;;;;3.50;2.30;;;;;;;21.10;42.47;100470.39;107548;1244;72777;-70
2022/09/14 09:15:46;;;;;;;3.60;2.20;;;;;;;21.24;42.28;100468.81;107920;1241;70240;-71
2022/09/14 09:18:40;;;;;;;3.10;1.90;;;;;;;21.38;41.10;100474.34;108007;1243;74254;-69
2022/09/14 09:21:30;;;;;;;4.40;2.30;;;;;;;21.36;42.07;100469.28;107966;1244;59530;-66
2022/09/14 09:24:44;;;;;;;3.10;2.00;;;;;;;21.55;42.13;100464.50;107862;1244;59491;-64
2022/09/14 09:27:15;;;;;;;3.10;2.20;;;;;;;21.74;40.96;100464.90;108097;1241;74379;-65
2022/09/14 09:29:44;;;;;;;6.00;2.50;;;;;;;21.75;40.80;100468.84;108011;1242;72249;-68
2022/09/14 09:32:24;;;;;;;3.60;2.30;;;;;;;21.88;41.26;100472.38;108047;1241;69230;-65
2022/09/14 09:35:23;;;;;;;4.10;2.30;;;;;;;22.14;40.79;100470.32;107850;1244;75034;-69
2022/09/14 09:38:17;;;;;;;4.10;2.10;;;;;;;22.21;39.90;100461.14;108028;1242;60892;-71
2022/09/14 09:40:53;;;;;;;4.30;2.30;;;;;;;22.27;38.97;100459.83;108162;1242;59599;-69
2022/09/14 09:43:22;;;;;;;3.00;1.80;;;;;;;22.18;39.47;100460.87;107830;1244;75436;-68
2022/09/14 09:46:11;;;;;;;3.00;1.80;;;;;;;22.15;39.45;100463.63;108076;1242;72341;-68
2022/09/14 09:48:44;;;;;;;4.30;2.10;;;;;;;22.15;39.56;100462.27;107719;1243;60876;-68
2022/09/14 09:51:23;;;;;;;3.70;2.20;;;;;;;22.14;39.71;100457.15;107931;1244;72764;-72
2022/09/14 09:54:30;;;;;;;2.70;2.00;;;;;;;22.20;38.67;100452.50;108198;1241;59561;-73
2022/09/14 09:57:06;;;;;;;2.90;1.70;;;;;;;22.21;38.70;100448.04;108183;1241;59553;-75
2022/09/14 09:59:43;;;;;;;4.00;1.90;;;;;;;22.19;39.19;100445.08;108263;1241;74952;-71
2022/09/14 10:02:28;;;;;;;3.30;1.70;;;;;;;22.19;38.52;100438.64;108032;1243;72664;-71
2022/09/14 10:05:22;;;;;;;2.60;1.50;;;;;;;22.23;38.48;100446.70;108182;1244;71112;-72
2022/09/14 10:07:58;;;;;;;5.30;2.00;;;;;;;22.27;38.97;100449.95;108204;1243;63705;-69
2022/09/14 10:10:33;;;;;;;2.90;1.70;;;;;;;22.44;38.78;100449.55;107979;1244;59057;-70
2022/09/14 10:13:13;;;;;;;4.70;2.00;;;;;;;22.54;38.36;100447.20;108226;1242;59635;-68
2022/09/14 10:15:42;;;;;;;8.70;2.30;;;;;;;22.52;38.20;100443.34;108057;1244;62978;-66
2022/09/14 10:18:17;;;;;;;2.90;2.00;;;;;;;22.79;38.27;100442.95;107865;1241;71803;-66
2022/09/14 10:21:12;;;;;;;3.20;2.00;;;;;;;22.94;37.00;100439.99;108198;1244;59640;-70
2022/09/14 10:23:42;;;;;;;3.80;1.80;;;;;;;23.14;37.06;100444.09;108050;1244;63231;-68
2022/09/14 10:26:11;;;;;;;2.70;1.50;;;;;;;23.33;36.88;100446.45;107875;1244;59612;-72
2022/09/14 10:28:48;;;;;;;5.00;1.90;;;;;;;23.67;35.82;100434.91;108274;1241;61128;-67
2022/09/14 10:31:30;;;;;;;2.30;1.50;;;;;;;23.86;36.13;100438.17;108179;1241;72996;-71
2022/09/14 10:33:59;;;;;;;4.00;1.80;;;;;;;24.17;36.32;100434.11;108164;1241;72675;-71
2022/09/14 10:36:46;;;;;;;3.10;1.70;;;;;;;24.21;36.27;100422.61;108119;1244;69021;-69
2022/09/14 10:39:18;;;;;;;2.30;1.60;;;;;;;24.49;36.12;100423.30;108346;1242;63288;-70
2022/09/14 10:42:07;;;;;;;3.60;1.90;;;;;;;24.69;35.29;100419.17;108262;1241;60468;-70
2022/09/14 10:45:08;;;;;;;2.30;1.80;;;;;;;25.06;35.35;100418.67;108348;1241;59031;-69
2022/09/14 10:48:18;;;;;;;2.80;1.60;;;;;;;25.63;33.62;100410.10;108256;1241;63830;-71
2022/09/14 10:51:14;;;;;;;3.20;1.90;;;;;;;25.67;33.77;100411.43;107647;1244;60765;-73
2022/09/14 10:53:50;;;;;;;2.30;1.30;;;;;;;25.84;33.78;100415.65;107992;1244;59992;-73
2022/09/14 10:56:52;;;;;;;2.30;1.80;;;;;;;26.04;33.26;100414.12;108219;1241;62933;-74
2022/09/14 10:59:30;;;;;;;2.90;1.60;;;;;;;26.13;32.03;100406.34;108303;1241;59598;-71
2022/09/14 11:02:25;;;;;;;5.60;1.70;;;;;;;26.21;32.03;100404.79;108067;1241;59239;-71
2022/09/14 11:05:24;;;;;;;2.00;1.60;;;;;;;27.06;30.43;100407.85;108163;1241;63738;-72
2022/09/14 11:08:23;;;;;;;3.30;1.60;;;;;;;26.99;29.81;100408.21;108281;1241;60970;-73
2022/09/14 11:11:53;;;;;;;3.60;1.30;;;;;;;26.87;29.81;100408.00;108286;1241;60338;-73
2022/09/14 11:14:50;;;;;;;3.30;1.90;;;;;;;26.61;30.56;100408.52;108281;1241;62402;-72
2022/09/14 11:17:55;;;;;;;2.40;1.40;;;;;;;27.07;29.87;100413.98;108281;1241;60741;-72
2022/09/14 11:20:57;;;;;;;4.30;1.70;;;;;;;27.08;29.68;100420.00;108307;1241;58352;-72
2022/09/14 11:23:50;;;;;;;3.10;1.70;;;;;;;26.94;30.09;100413.94;108230;1241;63781;-68
2022/09/14 11:26:35;;;;;;;1.90;1.30;;;;;;;27.23;28.64;100410.41;108101;1241;72200;-69
2022/09/14 11:29:56;;;;;;;3.80;2.00;;;;;;;27.09;29.39;100404.92;108270;1241;59631;-67
2022/09/14 11:32:39;;;;;;;3.80;1.70;;;;;;;27.04;30.17;100397.71;108211;1242;73920;-72
2022/09/14 11:35:34;;;;;;;2.70;1.30;;;;;;;27.50;29.12;100395.33;107922;1241;58993;-74
2022/09/14 11:38:16;;;;;;;2.00;1.30;;;;;;;27.54;28.56;100390.35;108236;1243;58498;-72
2022/09/14 11:40:54;;;;;;;5.50;1.50;;;;;;;27.37;28.89;100394.42;108284;1241;63773;-74
2022/09/14 11:43:41;;;;;;;2.90;1.80;;;;;;;27.09;29.97;100385.52;108052;1244;60835;-73
2022/09/14 11:46:20;;;;;;;3.20;1.60;;;;;;;27.58;29.15;100380.30;107957;1244;60287;-72
2022/09/14 11:49:11;;;;;;;2.90;1.80;;;;;;;27.80;28.85;100383.61;108243;1241;73852;-72
2022/09/14 11:51:54;;;;;;;2.90;1.70;;;;;;;27.88;28.68;100375.29;108235;1241;58005;-74
2022/09/14 11:54:23;;;;;;;2.50;1.60;;;;;;;27.24;29.55;100368.27;108050;1242;59565;-74
2022/09/14 11:57:02;;;;;;;2.50;1.70;;;;;;;28.02;29.00;100376.05;108377;1241;63011;-70
2022/09/14 11:59:40;;;;;;;4.70;2.40;;;;;;;28.71;28.13;100370.80;108410;1241;72321;-69